Time;durP1;ratioP1;P1;durP2;ratioP2;P2;SDS_P1;SDS_P2;PMS_P1;PMS_P2;Temp;Humidity;BMP_temperature;BMP_pressure;BME280_temperature;BME280_humidity;BME280_pressure;Samples;Min_cycle;Max_cycle;Signal;HPM_P1;HPM_P2
2022/05/30 00:01:36;;;;;;;3.90;1.63;;;11.60;99.90;;;;;;4978839;28;20720;-81
2022/05/30 00:04:02;;;;;;;3.57;1.90;;;11.60;99.90;;;;;;4979010;28;20432;-81
2022/05/30 00:06:29;;;;;;;7.87;2.13;;;11.70;99.90;;;;;;4978454;28;20186;-80
2022/05/30 00:08:56;;;;;;;3.37;2.10;;;11.70;99.90;;;;;;4978658;28;20611;-80
2022/05/30 00:11:22;;;;;;;3.47;2.13;;;11.70;99.90;;;;;;4978622;28;20424;-80
2022/05/30 00:13:48;;;;;;;3.43;2.03;;;11.60;99.90;;;;;;4978480;28;20516;-81
2022/05/30 00:16:17;;;;;;;6.40;2.17;;;11.60;99.90;;;;;;4978149;28;20460;-80
2022/05/30 00:18:49;;;;;;;6.43;2.50;;;11.60;99.90;;;;;;4978206;28;20440;-81
2022/05/30 00:21:19;;;;;;;3.23;2.10;;;11.60;99.90;;;;;;4978324;28;20423;-81
2022/05/30 00:23:45;;;;;;;3.60;1.93;;;11.50;99.90;;;;;;4978444;28;20567;-80
2022/05/30 00:26:11;;;;;;;7.13;2.30;;;11.40;99.90;;;;;;4978058;28;20436;-80
2022/05/30 00:28:37;;;;;;;3.93;2.40;;;11.40;99.90;;;;;;4977809;28;20459;-80
2022/05/30 00:31:07;;;;;;;7.13;2.67;;;11.40;99.90;;;;;;4978043;28;20207;-80
2022/05/30 00:33:37;;;;;;;3.30;2.20;;;11.40;99.90;;;;;;4978434;28;20412;-80
2022/05/30 00:36:03;;;;;;;3.77;2.10;;;11.50;99.90;;;;;;4977670;28;20540;-80
2022/05/30 00:38:29;;;;;;;3.30;1.90;;;11.40;99.90;;;;;;4977991;28;20433;-80
2022/05/30 00:40:54;;;;;;;5.00;2.10;;;11.30;99.90;;;;;;4978425;28;20823;-80
2022/05/30 00:43:27;;;;;;;3.63;2.10;;;11.30;99.90;;;;;;4978157;28;20184;-80
2022/05/30 00:45:54;;;;;;;6.17;2.57;;;11.30;99.90;;;;;;4977789;28;20221;-80
2022/05/30 00:48:24;;;;;;;3.30;2.20;;;11.30;99.90;;;;;;4977994;28;20460;-80
2022/05/30 00:50:53;;;;;;;3.50;1.97;;;11.40;99.90;;;;;;4977923;28;20516;-81
2022/05/30 00:53:20;;;;;;;3.43;1.87;;;11.40;99.90;;;;;;4977958;28;20507;-81
2022/05/30 00:55:50;;;;;;;2.97;1.80;;;11.40;99.90;;;;;;4977305;28;20523;-80
2022/05/30 00:58:23;;;;;;;4.10;2.13;;;11.50;99.90;;;;;;4978069;28;20448;-80
2022/05/30 01:00:48;;;;;;;3.90;1.80;;;11.40;99.90;;;;;;4977426;28;20444;-81
2022/05/30 01:08:43;;;;;;;3.07;1.60;;;11.40;99.90;;;;;;4996092;28;20439;-81
2022/05/30 01:11:09;;;;;;;3.00;1.90;;;11.40;99.90;;;;;;4977607;28;20446;-80
2022/05/30 01:13:37;;;;;;;4.27;2.07;;;11.40;99.90;;;;;;4977946;28;20439;-80
2022/05/30 01:16:04;;;;;;;6.17;2.07;;;11.40;99.90;;;;;;4977427;28;20259;-81
2022/05/30 01:18:46;;;;;;;4.23;2.60;;;11.30;99.90;;;;;;4977324;28;20445;-80
2022/05/30 01:21:30;;;;;;;5.17;2.43;;;11.30;99.90;;;;;;4977435;28;20432;-80
2022/05/30 01:24:17;;;;;;;3.80;2.40;;;11.40;99.90;;;;;;4977276;28;20424;-81
2022/05/30 01:27:02;;;;;;;4.57;2.53;;;11.50;99.90;;;;;;4977295;28;20417;-80
2022/05/30 01:29:40;;;;;;;4.20;2.17;;;11.50;99.90;;;;;;4980864;28;20440;-81
2022/05/30 01:32:06;;;;;;;5.00;2.43;;;11.50;99.90;;;;;;4996097;28;20455;-80
2022/05/30 01:34:32;;;;;;;4.53;2.50;;;11.60;99.90;;;;;;4996315;28;20435;-80
2022/05/30 01:36:57;;;;;;;5.00;2.73;;;11.60;99.90;;;;;;4996254;28;20757;-80
2022/05/30 01:39:23;;;;;;;4.67;2.40;;;11.60;99.90;;;;;;4996524;28;20181;-80
2022/05/30 01:41:49;;;;;;;4.67;2.27;;;11.50;99.90;;;;;;4996761;28;20746;-80
2022/05/30 01:44:14;;;;;;;4.30;2.40;;;11.40;99.90;;;;;;4996614;28;20173;-80
2022/05/30 01:46:40;;;;;;;5.27;2.60;;;11.40;99.90;;;;;;4996159;28;20192;-81
2022/05/30 01:49:06;;;;;;;5.73;2.60;;;11.40;99.90;;;;;;4996438;28;20176;-80
2022/05/30 01:51:33;;;;;;;5.20;2.67;;;11.40;99.90;;;;;;4996800;28;20446;-81
2022/05/30 01:53:59;;;;;;;5.07;2.30;;;11.30;99.90;;;;;;4996351;28;20348;-80
2022/05/30 01:56:25;;;;;;;4.53;2.37;;;11.20;99.90;;;;;;4996580;28;20485;-80
2022/05/30 01:58:51;;;;;;;5.57;2.30;;;11.30;99.90;;;;;;4997137;28;20443;-81
2022/05/30 02:01:26;;;;;;;3.97;2.40;;;11.30;99.90;;;;;;5003496;28;20951;-81
2022/05/30 02:03:53;;;;;;;3.43;2.53;;;11.30;99.90;;;;;;5003121;28;20447;-81
2022/05/30 02:06:20;;;;;;;4.73;2.60;;;11.40;99.90;;;;;;5003590;28;20424;-81
2022/05/30 02:08:50;;;;;;;3.20;2.17;;;11.40;99.90;;;;;;5002916;28;20444;-81
2022/05/30 02:11:17;;;;;;;3.80;2.50;;;11.40;99.90;;;;;;5001911;28;20428;-81
2022/05/30 02:13:44;;;;;;;3.50;2.13;;;11.30;99.90;;;;;;5001680;28;20511;-81
2022/05/30 02:18:57;;;;;;;4.50;2.27;;;11.20;99.90;;;;;;5019430;28;20478;-81
2022/05/30 02:21:23;;;;;;;6.30;2.67;;;11.10;99.90;;;;;;5001052;28;20765;-81
2022/05/30 02:23:49;;;;;;;6.50;2.33;;;11.00;99.90;;;;;;5000206;28;20424;-81
2022/05/30 02:26:15;;;;;;;2.87;2.10;;;11.10;99.90;;;;;;5000111;28;20416;-81
2022/05/30 02:28:40;;;;;;;3.77;2.40;;;11.10;99.90;;;;;;5000168;28;20204;-81
2022/05/30 02:31:06;;;;;;;4.70;2.67;;;11.00;99.90;;;;;;4999725;28;20204;-81
2022/05/30 02:39:01;;;;;;;3.33;1.97;;;11.20;99.90;;;;;;5018209;28;20395;-81
2022/05/30 02:41:26;;;;;;;6.00;2.30;;;11.20;99.90;;;;;;4999371;28;20796;-81
2022/05/30 02:43:52;;;;;;;4.10;2.10;;;11.30;99.90;;;;;;4998879;28;20270;-81
2022/05/30 02:46:18;;;;;;;3.43;2.10;;;11.30;99.90;;;;;;4998725;28;20427;-81
2022/05/30 02:48:44;;;;;;;2.87;2.00;;;11.30;99.90;;;;;;4998699;28;20204;-81
2022/05/30 02:51:10;;;;;;;3.23;2.10;;;11.30;99.90;;;;;;4998674;28;20177;-81
2022/05/30 02:53:36;;;;;;;4.20;2.60;;;11.30;99.90;;;;;;4998052;28;20448;-81
2022/05/30 02:56:04;;;;;;;3.20;2.13;;;11.20;99.90;;;;;;4997637;28;20835;-81
2022/05/30 02:58:29;;;;;;;3.37;2.17;;;11.20;99.90;;;;;;4997620;28;20427;-81
2022/05/30 03:00:55;;;;;;;3.87;1.87;;;11.20;99.90;;;;;;5001329;28;20423;-81
2022/05/30 03:03:21;;;;;;;3.20;2.33;;;11.20;99.90;;;;;;5001745;28;20176;-81
2022/05/30 03:05:47;;;;;;;3.30;1.90;;;11.10;99.90;;;;;;5001808;28;20187;-80
2022/05/30 03:08:13;;;;;;;4.30;2.50;;;11.10;99.90;;;;;;5001705;28;20222;-81
2022/05/30 03:10:39;;;;;;;5.60;2.27;;;11.10;99.90;;;;;;5002037;28;20929;-81
2022/05/30 03:13:06;;;;;;;7.40;2.30;;;11.20;99.90;;;;;;5015280;23;20524;-79
2022/05/30 03:15:32;;;;;;;4.60;2.23;;;11.20;99.90;;;;;;5003744;28;20215;-79
2022/05/30 03:17:58;;;;;;;4.60;2.60;;;11.20;99.90;;;;;;5005646;28;20530;-80
2022/05/30 03:20:25;;;;;;;4.67;2.50;;;11.20;99.90;;;;;;5005376;28;20420;-79
2022/05/30 03:22:51;;;;;;;3.87;2.23;;;11.20;99.90;;;;;;5005395;28;20415;-79
2022/05/30 03:25:17;;;;;;;3.63;2.27;;;11.20;99.90;;;;;;5005032;28;20429;-80
2022/05/30 03:27:44;;;;;;;4.10;2.20;;;11.30;99.90;;;;;;5005350;28;20443;-80
2022/05/30 03:30:11;;;;;;;4.07;2.03;;;11.30;99.90;;;;;;5005182;28;20467;-79
2022/05/30 03:32:37;;;;;;;7.03;2.10;;;11.20;99.90;;;;;;5004607;28;20416;-79
2022/05/30 03:35:04;;;;;;;3.50;2.10;;;11.20;99.90;;;;;;5004667;28;20677;-79
2022/05/30 03:37:31;;;;;;;10.43;2.10;;;11.30;99.90;;;;;;5004225;28;20440;-78
2022/05/30 03:39:56;;;;;;;3.20;2.07;;;11.30;99.90;;;;;;5004289;28;20423;-79
2022/05/30 03:42:22;;;;;;;6.27;2.00;;;11.30;99.90;;;;;;5003984;28;20918;-79
2022/05/30 03:44:48;;;;;;;3.50;1.97;;;11.30;99.90;;;;;;5003955;28;20188;-79
2022/05/30 03:47:15;;;;;;;3.97;2.40;;;11.30;99.90;;;;;;5003685;28;20679;-78
2022/05/30 03:49:41;;;;;;;6.73;2.10;;;11.30;99.90;;;;;;5003839;28;20415;-79
2022/05/30 03:52:07;;;;;;;5.03;2.03;;;11.30;99.90;;;;;;5003008;28;20437;-79
2022/05/30 03:54:33;;;;;;;5.27;2.40;;;11.30;99.90;;;;;;5004048;28;20420;-79
2022/05/30 03:56:59;;;;;;;3.83;2.17;;;11.30;99.90;;;;;;5003484;28;20866;-80
2022/05/30 03:59:24;;;;;;;7.90;2.60;;;11.30;99.90;;;;;;5003371;28;20177;-79
2022/05/30 04:01:50;;;;;;;7.37;2.00;;;11.30;99.90;;;;;;5003523;28;20181;-79
2022/05/30 04:04:16;;;;;;;4.43;2.33;;;11.30;99.90;;;;;;5003438;28;20181;-79
2022/05/30 04:06:42;;;;;;;5.50;2.27;;;11.40;99.90;;;;;;5003683;28;20189;-79
2022/05/30 04:09:08;;;;;;;4.13;2.13;;;11.40;99.90;;;;;;5002635;28;20185;-80
2022/05/30 04:11:35;;;;;;;3.47;2.50;;;11.40;99.90;;;;;;5002179;28;20181;-79
2022/05/30 04:14:01;;;;;;;5.40;2.60;;;11.40;99.90;;;;;;5002084;28;20848;-79
2022/05/30 04:16:27;;;;;;;4.80;2.70;;;11.40;99.90;;;;;;5002763;28;20470;-79
2022/05/30 04:18:53;;;;;;;5.00;2.77;;;11.40;99.90;;;;;;5002721;28;20463;-79
2022/05/30 04:21:19;;;;;;;3.30;2.10;;;11.50;99.90;;;;;;5003240;28;20954;-79
2022/05/30 04:23:45;;;;;;;6.07;2.43;;;11.60;99.90;;;;;;5003137;28;20412;-77
2022/05/30 04:26:14;;;;;;;4.60;1.90;;;11.60;99.90;;;;;;5002159;28;20454;-80
2022/05/30 04:28:41;;;;;;;5.43;2.40;;;11.60;99.90;;;;;;5002891;28;20863;-79
2022/05/30 04:31:09;;;;;;;4.67;2.70;;;11.70;99.90;;;;;;5002795;28;20458;-78
2022/05/30 04:33:34;;;;;;;3.50;2.20;;;11.70;99.90;;;;;;5002438;28;20430;-79
2022/05/30 04:36:03;;;;;;;4.63;2.43;;;11.80;99.90;;;;;;5002747;28;20514;-80
2022/05/30 04:38:29;;;;;;;5.73;2.20;;;11.80;99.90;;;;;;5002901;28;20209;-79
2022/05/30 04:40:55;;;;;;;3.97;2.20;;;11.80;99.90;;;;;;5002348;28;20420;-78
2022/05/30 04:43:21;;;;;;;4.07;2.10;;;11.80;99.90;;;;;;5001700;28;20901;-77
2022/05/30 04:45:47;;;;;;;3.77;2.20;;;11.90;99.90;;;;;;5001620;28;20814;-79
2022/05/30 04:48:13;;;;;;;7.23;2.20;;;11.90;99.90;;;;;;5001949;28;20216;-79
2022/05/30 04:50:38;;;;;;;5.10;2.37;;;11.90;99.90;;;;;;5001249;28;20428;-79
2022/05/30 04:53:04;;;;;;;5.47;2.70;;;12.00;99.90;;;;;;5001219;28;20189;-79
2022/05/30 04:55:30;;;;;;;4.07;2.33;;;12.00;99.90;;;;;;5001438;28;20296;-79
2022/05/30 04:57:59;;;;;;;4.00;2.30;;;12.00;99.90;;;;;;5001061;28;20207;-78
2022/05/30 05:00:25;;;;;;;6.80;2.33;;;12.10;99.90;;;;;;5001564;28;20181;-79
2022/05/30 05:02:54;;;;;;;3.23;1.73;;;12.10;99.90;;;;;;5001398;28;20416;-79
2022/05/30 05:05:20;;;;;;;6.67;2.30;;;12.20;99.90;;;;;;5000547;28;20192;-79
2022/05/30 05:07:53;;;;;;;4.47;2.70;;;12.20;99.90;;;;;;5000873;28;20440;-78
2022/05/30 05:10:33;;;;;;;4.17;1.90;;;12.20;99.90;;;;;;5001291;28;20432;-79
2022/05/30 05:12:59;;;;;;;3.93;2.10;;;12.30;99.90;;;;;;5000331;28;20483;-78
2022/05/30 05:15:25;;;;;;;3.63;2.10;;;12.30;99.90;;;;;;5001097;28;20466;-80
2022/05/30 05:17:50;;;;;;;4.33;2.30;;;12.40;99.90;;;;;;5002145;28;20440;-80
2022/05/30 05:20:16;;;;;;;4.83;2.57;;;12.30;99.90;;;;;;5001882;28;20177;-80
2022/05/30 05:22:42;;;;;;;3.73;2.20;;;12.30;99.90;;;;;;5000907;28;20185;-80
2022/05/30 05:25:08;;;;;;;11.00;2.53;;;12.30;99.90;;;;;;5000953;28;20279;-79
2022/05/30 05:27:34;;;;;;;5.50;4.50;;;12.40;99.90;;;;;;5001767;28;20672;-79
2022/05/30 05:30:00;;;;;;;5.80;2.37;;;12.40;99.90;;;;;;5001744;28;20434;-78
2022/05/30 05:32:25;;;;;;;5.27;2.40;;;12.40;99.90;;;;;;4999447;28;20188;-80
2022/05/30 05:34:51;;;;;;;5.73;2.37;;;12.50;99.90;;;;;;4997478;28;20402;-79
2022/05/30 05:37:17;;;;;;;5.80;2.40;;;12.60;99.90;;;;;;4997445;28;20343;-80
2022/05/30 05:39:43;;;;;;;3.50;2.30;;;12.60;99.90;;;;;;4997485;28;20192;-81
2022/05/30 05:42:09;;;;;;;5.33;2.57;;;12.70;99.90;;;;;;4997083;28;20457;-79
2022/05/30 05:44:36;;;;;;;4.47;2.20;;;12.80;99.90;;;;;;4996831;28;20794;-81
2022/05/30 05:47:02;;;;;;;4.73;2.73;;;13.00;99.90;;;;;;4995344;28;20216;-80
2022/05/30 05:49:28;;;;;;;4.13;2.33;;;13.00;99.90;;;;;;4993013;28;20422;-79
2022/05/30 05:51:57;;;;;;;6.93;3.20;;;13.00;99.90;;;;;;4997864;28;20491;-80
2022/05/30 05:54:25;;;;;;;4.87;2.50;;;13.00;99.90;;;;;;4995282;28;20197;-80
2022/05/30 05:56:51;;;;;;;3.90;2.63;;;13.10;99.90;;;;;;4996539;28;20986;-80
2022/05/30 05:59:17;;;;;;;5.97;2.63;;;13.10;99.90;;;;;;4996483;28;20474;-79
2022/05/30 06:01:43;;;;;;;6.67;2.80;;;13.20;99.90;;;;;;4996889;28;20486;-81
2022/05/30 06:04:10;;;;;;;6.07;2.93;;;13.30;99.90;;;;;;4996576;28;20424;-82
2022/05/30 06:06:36;;;;;;;8.03;3.30;;;13.30;99.90;;;;;;4996510;28;20189;-81
2022/05/30 06:09:04;;;;;;;5.03;3.00;;;13.50;99.90;;;;;;4996755;28;20428;-78
2022/05/30 06:11:31;;;;;;;5.20;3.03;;;13.50;99.90;;;;;;4997124;28;20798;-80
2022/05/30 06:13:57;;;;;;;6.53;2.83;;;13.40;99.90;;;;;;4997224;28;20448;-79
2022/05/30 06:16:25;;;;;;;8.50;3.23;;;13.50;99.90;;;;;;4996804;28;20881;-81
2022/05/30 06:18:54;;;;;;;4.60;2.60;;;13.50;99.90;;;;;;4996286;28;20447;-79
2022/05/30 06:21:21;;;;;;;5.20;2.93;;;13.60;99.90;;;;;;4996504;28;20424;-81
2022/05/30 06:23:48;;;;;;;9.97;3.30;;;13.70;99.90;;;;;;4995978;28;20523;-81
2022/05/30 06:26:14;;;;;;;5.40;3.33;;;13.80;99.90;;;;;;4994985;28;20490;-82
2022/05/30 06:28:41;;;;;;;4.43;3.00;;;13.80;99.90;;;;;;4995327;28;20506;-81
2022/05/30 06:31:14;;;;;;;7.00;3.87;;;13.90;99.90;;;;;;4995181;28;21002;-81
2022/05/30 06:33:41;;;;;;;4.90;3.00;;;13.90;99.90;;;;;;4995511;28;20898;-81
2022/05/30 06:36:08;;;;;;;5.90;4.27;;;13.90;99.90;;;;;;4994763;28;20672;-81
2022/05/30 06:38:35;;;;;;;5.23;2.97;;;14.00;99.90;;;;;;4995060;28;20439;-81
2022/05/30 06:41:15;;;;;;;4.83;3.30;;;14.10;99.90;;;;;;4995152;28;20458;-81
2022/05/30 06:43:42;;;;;;;4.23;2.23;;;14.20;99.90;;;;;;4995657;28;20519;-82
2022/05/30 06:46:09;;;;;;;5.50;3.00;;;14.30;99.90;;;;;;4995034;28;20574;-81
2022/05/30 06:48:36;;;;;;;5.30;2.80;;;14.40;99.90;;;;;;4995157;28;20448;-81
2022/05/30 06:51:06;;;;;;;5.67;2.77;;;14.40;99.90;;;;;;4995071;28;20433;-80
2022/05/30 06:53:32;;;;;;;7.80;2.57;;;14.50;99.90;;;;;;4994976;28;20931;-81
2022/05/30 06:55:58;;;;;;;4.40;2.50;;;14.40;99.90;;;;;;4995754;28;20474;-81
2022/05/30 06:58:24;;;;;;;5.20;2.40;;;14.40;99.90;;;;;;4995000;28;20208;-80
2022/05/30 07:00:58;;;;;;;4.30;2.30;;;14.40;99.90;;;;;;4998334;28;20452;-80
2022/05/30 07:03:24;;;;;;;5.90;2.50;;;14.40;99.90;;;;;;4998961;28;20463;-81
2022/05/30 07:05:49;;;;;;;4.20;2.70;;;14.50;99.90;;;;;;4998521;28;20927;-80
2022/05/30 07:08:15;;;;;;;3.80;2.60;;;14.70;99.90;;;;;;4997240;28;20200;-81
2022/05/30 07:10:42;;;;;;;4.73;2.57;;;14.70;99.90;;;;;;4998817;28;20181;-80
2022/05/30 07:13:09;;;;;;;4.23;2.43;;;14.80;99.90;;;;;;4999643;28;20200;-80
2022/05/30 07:15:36;;;;;;;5.30;3.20;;;14.90;99.90;;;;;;4998005;28;20522;-81
2022/05/30 07:18:10;;;;;;;7.33;2.77;;;14.90;99.90;;;;;;4999263;28;20466;-81
2022/05/30 07:20:37;;;;;;;13.70;2.87;;;15.00;99.90;;;;;;4999243;28;20432;-80
2022/05/30 07:23:03;;;;;;;4.40;2.40;;;15.10;99.90;;;;;;4999554;28;20423;-81
2022/05/30 07:25:28;;;;;;;5.13;3.17;;;15.20;99.90;;;;;;4999761;28;20424;-82
2022/05/30 07:27:54;;;;;;;4.20;2.50;;;15.30;99.90;;;;;;4999742;28;20451;-81
2022/05/30 07:30:20;;;;;;;6.77;3.50;;;15.40;99.90;;;;;;5000011;28;20251;-81
2022/05/30 07:32:46;;;;;;;4.33;2.80;;;15.40;99.90;;;;;;4999905;28;20196;-79
2022/05/30 07:35:11;;;;;;;4.37;2.63;;;15.60;99.90;;;;;;4999620;28;20193;-82
2022/05/30 07:37:37;;;;;;;4.70;2.67;;;15.70;99.90;;;;;;5000120;28;20447;-81
2022/05/30 07:40:05;;;;;;;8.43;3.13;;;;;;;;;;4999279;28;20268;-79
2022/05/30 07:42:30;;;;;;;5.30;2.50;;;15.90;99.90;;;;;;4999322;28;20711;-81
2022/05/30 07:44:56;;;;;;;7.20;2.80;;;16.00;99.90;;;;;;4999938;28;20416;-81
2022/05/30 07:47:22;;;;;;;4.70;2.67;;;16.10;99.90;;;;;;5002898;28;20292;-81
2022/05/30 07:49:48;;;;;;;8.50;2.70;;;16.20;99.90;;;;;;5002778;28;20247;-81
2022/05/30 07:52:14;;;;;;;7.03;2.40;;;16.30;99.90;;;;;;5003669;28;20416;-81
2022/05/30 07:54:40;;;;;;;3.67;2.13;;;16.40;99.90;;;;;;5002807;28;20177;-81
2022/05/30 07:57:07;;;;;;;9.70;2.37;;;;;;;;;;5002191;28;20478;-81
2022/05/30 07:59:35;;;;;;;5.50;3.13;;;16.70;99.90;;;;;;5002873;28;20176;-82
2022/05/30 08:02:01;;;;;;;4.50;3.50;;;16.80;99.90;;;;;;5003338;28;20510;-81
2022/05/30 08:04:27;;;;;;;5.57;3.00;;;16.80;99.90;;;;;;5002688;28;20456;-81
2022/05/30 08:06:52;;;;;;;3.87;2.97;;;16.80;99.90;;;;;;5002460;28;20893;-80
2022/05/30 08:09:19;;;;;;;5.00;2.83;;;16.80;99.90;;;;;;4999856;28;20189;-80
2022/05/30 08:11:44;;;;;;;6.33;2.73;;;17.00;99.90;;;;;;4998952;28;20193;-81
2022/05/30 08:14:11;;;;;;;7.50;3.70;;;17.10;99.90;;;;;;4998988;28;20582;-80
2022/05/30 08:16:37;;;;;;;6.93;2.83;;;17.80;99.90;;;;;;4998544;28;20216;-81
2022/05/30 08:19:08;;;;;;;6.40;2.90;;;17.90;99.90;;;;;;4998643;28;20416;-80
2022/05/30 08:21:36;;;;;;;5.07;2.40;;;17.80;99.90;;;;;;4994331;28;20440;-81
2022/05/30 08:24:02;;;;;;;8.90;2.70;;;17.90;99.90;;;;;;4995894;28;20983;-81
2022/05/30 08:26:28;;;;;;;5.20;3.00;;;17.80;99.90;;;;;;4978816;28;20460;-79
2022/05/30 08:28:54;;;;;;;6.27;2.90;;;17.80;99.90;;;;;;4979048;28;20448;-80
2022/05/30 08:31:19;;;;;;;5.60;3.07;;;18.00;99.90;;;;;;4978634;28;20181;-81
2022/05/30 08:33:45;;;;;;;8.27;2.93;;;18.60;99.90;;;;;;4982379;28;20280;-81
2022/05/30 08:36:12;;;;;;;5.37;2.50;;;19.00;99.90;;;;;;4997750;28;20238;-79
2022/05/30 08:38:39;;;;;;;6.80;2.60;;;18.90;99.90;;;;;;4998426;28;20543;-81
2022/05/30 08:43:55;;;;;;;6.70;3.27;;;18.60;99.90;;;;;;5016384;28;20423;-80
2022/05/30 08:46:56;;;;;;;6.23;3.00;;;18.60;99.90;;;;;;4997543;28;20431;-82
2022/05/30 08:49:28;;;;;;;6.07;3.70;;;18.10;99.90;;;;;;4998381;28;20419;-81
2022/05/30 08:52:18;;;;;;;7.03;3.30;;;18.20;99.90;;;;;;5000536;28;20432;-81
2022/05/30 08:55:16;;;;;;;4.63;2.77;;;18.10;99.90;;;;;;5000447;28;20446;-80
2022/05/30 08:58:05;;;;;;;4.93;3.00;;;17.90;99.90;;;;;;5000321;28;20495;-81
2022/05/30 09:00:56;;;;;;;5.80;2.87;;;17.90;99.90;;;;;;4999932;28;21027;-80
2022/05/30 09:03:41;;;;;;;5.53;2.63;;;18.00;99.90;;;;;;4999930;28;20408;-82
2022/05/30 09:06:20;;;;;;;6.50;2.60;;;17.90;99.90;;;;;;4999804;28;20424;-80
2022/05/30 09:08:51;;;;;;;5.37;2.57;;;17.70;99.90;;;;;;5000270;28;20443;-81
2022/05/30 09:11:40;;;;;;;6.30;3.20;;;18.90;99.90;;;;;;4999401;28;20416;-80
2022/05/30 09:16:44;;;;;;;6.30;2.80;;;20.50;99.90;;;;;;5069714;22;21086;-83
2022/05/30 09:19:12;;;;;;;5.37;2.90;;;20.40;99.90;;;;;;5053646;28;20426;-82
2022/05/30 09:21:39;;;;;;;4.17;2.50;;;20.20;99.90;;;;;;5035377;28;20414;-81
2022/05/30 09:24:05;;;;;;;4.10;2.53;;;20.00;99.90;;;;;;5053367;28;20460;-82
2022/05/30 09:26:37;;;;;;;6.20;2.77;;;19.70;99.90;;;;;;5052578;28;20418;-82
2022/05/30 09:29:06;;;;;;;7.50;2.57;;;19.30;99.90;;;;;;5053368;28;20156;-81
2022/05/30 09:32:01;;;;;;;5.87;2.47;;;18.80;99.90;;;;;;5035077;28;20924;-81
2022/05/30 09:34:37;;;;;;;5.47;3.00;;;18.10;99.90;;;;;;5035304;28;20465;-81
2022/05/30 09:37:04;;;;;;;6.30;3.00;;;17.60;99.90;;;;;;5053531;28;20477;-81
2022/05/30 09:39:42;;;;;;;6.67;2.63;;;17.30;99.90;;;;;;5035101;28;20808;-82
2022/05/30 09:42:30;;;;;;;6.70;2.47;;;16.80;99.90;;;;;;5035200;28;20948;-82
2022/05/30 09:45:14;;;;;;;7.00;3.10;;;16.40;99.90;;;;;;5034968;28;20529;-81
2022/05/30 09:47:58;;;;;;;6.87;4.40;;;16.40;99.90;;;;;;5052534;28;20417;-81
2022/05/30 09:50:24;;;;;;;5.43;4.27;;;16.40;99.90;;;;;;5052525;28;20399;-81
2022/05/30 09:52:49;;;;;;;4.50;2.83;;;16.40;99.90;;;;;;5052879;28;20429;-81
2022/05/30 09:55:33;;;;;;;4.83;2.93;;;16.60;99.90;;;;;;5034408;28;20710;-81
2022/05/30 09:58:00;;;;;;;6.00;3.07;;;16.70;99.90;;;;;;5052800;28;20163;-81
2022/05/30 10:00:39;;;;;;;6.27;2.80;;;16.70;99.90;;;;;;5052205;28;20421;-81
2022/05/30 10:03:12;;;;;;;4.30;2.90;;;16.80;99.90;;;;;;5052282;28;20402;-81
2022/05/30 10:05:39;;;;;;;5.27;3.33;;;16.90;99.90;;;;;;5051964;28;21125;-81
2022/05/30 10:08:20;;;;;;;6.40;3.37;;;16.80;99.90;;;;;;5051154;28;20422;-82
2022/05/30 10:10:49;;;;;;;5.07;3.60;;;17.00;99.90;;;;;;5051799;28;20413;-84
2022/05/30 10:13:34;;;;;;;6.63;3.90;;;17.40;99.90;;;;;;5033661;28;20501;-81
2022/05/30 10:16:00;;;;;;;5.80;3.40;;;17.70;99.90;;;;;;5032896;28;20505;-84
2022/05/30 10:18:43;;;;;;;5.93;3.50;;;19.00;99.90;;;;;;5028765;28;20429;-85
2022/05/30 10:21:25;;;;;;;7.90;3.20;;;20.80;99.90;;;;;;5052078;28;20423;-82
2022/05/30 10:29:52;;;;;;;6.80;3.80;;;22.30;99.10;;;;;;4992764;28;20408;-79
2022/05/30 10:32:39;;;;;;;6.50;3.40;;;22.40;97.80;;;;;;4987814;28;20792;-79
2022/05/30 10:35:34;;;;;;;3.93;2.40;;;22.20;94.10;;;;;;4967999;28;20442;-78
2022/05/30 10:38:18;;;;;;;3.37;2.63;;;21.70;81.90;;;;;;4955684;28;21042;-79
2022/05/30 10:40:56;;;;;;;3.97;2.43;;;21.40;85.30;;;;;;4967091;28;20491;-73
2022/05/30 10:43:35;;;;;;;3.90;2.30;;;21.30;88.50;;;;;;4972755;28;20441;-73
2022/05/30 10:46:06;;;;;;;3.10;2.20;;;20.90;83.10;;;;;;4990504;28;20425;-73
2022/05/30 10:48:39;;;;;;;4.73;2.70;;;20.80;85.20;;;;;;4966498;28;20539;-74
2022/05/30 10:51:26;;;;;;;6.20;3.17;;;20.80;88.70;;;;;;4974121;28;20461;-73
2022/05/30 10:54:05;;;;;;;4.23;2.80;;;20.60;88.30;;;;;;4974777;28;20421;-73
2022/05/30 10:56:45;;;;;;;7.33;3.10;;;20.60;91.20;;;;;;4974327;28;21010;-73
2022/05/30 10:59:17;;;;;;;6.90;3.27;;;20.30;88.20;;;;;;4974576;28;20869;-81
2022/05/30 11:01:56;;;;;;;5.90;3.10;;;20.40;90.80;;;;;;4974421;28;20429;-80
2022/05/30 11:04:42;;;;;;;6.77;3.27;;;20.20;91.60;;;;;;4974810;28;20448;-79
2022/05/30 11:07:36;;;;;;;4.60;3.07;;;20.30;91.00;;;;;;4973745;28;21002;-80
2022/05/30 11:10:05;;;;;;;3.97;3.17;;;20.40;91.70;;;;;;4974937;28;20467;-80
2022/05/30 11:12:40;;;;;;;4.90;3.53;;;20.80;92.20;;;;;;4975034;28;20425;-79
2022/05/30 11:15:18;;;;;;;4.87;3.17;;;20.80;91.80;;;;;;4974654;28;20487;-81
2022/05/30 11:17:56;;;;;;;5.90;4.10;;;20.70;89.80;;;;;;4974987;28;20473;-80
2022/05/30 11:20:28;;;;;;;4.63;3.00;;;20.70;92.00;;;;;;4975408;28;20452;-79
2022/05/30 11:22:56;;;;;;;4.90;3.33;;;20.50;90.40;;;;;;4978678;28;20978;-79
2022/05/30 11:25:52;;;;;;;5.70;3.50;;;20.50;90.20;;;;;;4978310;28;20479;-79
2022/05/30 11:28:49;;;;;;;4.80;2.63;;;20.60;91.50;;;;;;4978354;28;20460;-80
2022/05/30 11:31:31;;;;;;;4.73;2.70;;;20.70;90.00;;;;;;4978611;28;20538;-80
2022/05/30 11:34:25;;;;;;;6.73;3.47;;;20.50;84.70;;;;;;4978612;28;20424;-81
2022/05/30 11:36:50;;;;;;;5.77;3.53;;;19.80;86.40;;;;;;4978416;28;20518;-80
2022/05/30 11:39:22;;;;;;;4.10;3.07;;;19.70;90.10;;;;;;4980767;28;20436;-81
2022/05/30 11:42:26;;;;;;;5.93;3.97;;;19.50;90.80;;;;;;4981003;28;20186;-80
2022/05/30 11:45:02;;;;;;;4.77;3.03;;;19.60;93.50;;;;;;4980925;28;20428;-81
2022/05/30 11:47:46;;;;;;;5.80;3.50;;;19.70;93.40;;;;;;4980696;28;20556;-81
2022/05/30 11:50:24;;;;;;;6.20;3.70;;;19.80;94.10;;;;;;4980047;28;20413;-81
2022/05/30 11:53:38;;;;;;;5.20;3.20;;;19.80;93.40;;;;;;4980350;28;20499;-80
2022/05/30 11:56:26;;;;;;;5.70;2.80;;;19.60;90.60;;;;;;4908043;28;20476;-81
2022/05/30 11:59:11;;;;;;;4.70;2.77;;;19.50;88.10;;;;;;4981011;28;20440;-81
2022/05/30 12:01:41;;;;;;;5.27;3.33;;;19.50;87.80;;;;;;4979762;28;20943;-80
2022/05/30 12:04:13;;;;;;;3.87;2.70;;;19.60;91.40;;;;;;4979216;28;20480;-80
2022/05/30 12:07:10;;;;;;;4.03;3.30;;;19.80;87.60;;;;;;4979369;28;20436;-80
2022/05/30 12:09:41;;;;;;;5.43;2.60;;;20.10;90.40;;;;;;4979656;28;20429;-80
2022/05/30 12:12:20;;;;;;;3.93;2.50;;;20.20;86.30;;;;;;4979550;28;20542;-80
2022/05/30 12:15:03;;;;;;;4.23;2.53;;;20.30;82.70;;;;;;4979429;28;20943;-80
2022/05/30 12:23:47;;;;;;;3.43;2.30;;;20.20;86.70;;;;;;4979228;28;20460;-81
2022/05/30 12:24:01;;;;;;;4.23;1.90;;;20.70;72.90;;;;;;4997020;28;20443;-80
2022/05/30 12:26:53;;;;;;;3.57;2.17;;;20.70;76.20;;;;;;4978491;28;20456;-80
2022/05/30 12:29:37;;;;;;;3.40;2.03;;;20.60;67.80;;;;;;4978533;28;20433;-81
2022/05/30 12:32:21;;;;;;;3.00;2.20;;;20.50;67.90;;;;;;4978402;28;20433;-80
2022/05/30 12:38:02;;;;;;;4.47;2.30;;;20.10;69.30;;;;;;4994643;28;21007;-79
2022/05/30 12:40:27;;;;;;;2.80;2.13;;;20.20;74.20;;;;;;4977090;28;20579;-79
2022/05/30 12:43:22;;;;;;;4.80;2.47;;;20.00;70.60;;;;;;4977093;28;21006;-78
2022/05/30 12:45:57;;;;;;;3.30;2.07;;;19.90;76.40;;;;;;4976725;28;20221;-83
2022/05/30 12:48:38;;;;;;;4.17;2.20;;;19.70;70.00;;;;;;4977167;28;20990;-84
2022/05/30 12:51:26;;;;;;;2.73;1.97;;;19.50;70.90;;;;;;4977003;28;20456;-84
2022/05/30 12:53:54;;;;;;;5.60;2.27;;;19.40;72.30;;;;;;4977045;28;20440;-80
2022/05/30 12:56:39;;;;;;;3.53;2.20;;;19.40;74.10;;;;;;4976483;28;20469;-80
2022/05/30 12:59:18;;;;;;;5.75;2.67;;;19.50;71.40;;;;;;4974187;28;20799;-80
2022/05/30 13:01:44;;;;;;;3.50;2.70;;;19.60;70.00;;;;;;4980426;28;20457;-80
2022/05/30 13:04:16;;;;;;;3.30;2.10;;;19.60;71.00;;;;;;4973338;28;20430;-80
2022/05/30 13:06:57;;;;;;;7.23;2.43;;;19.90;64.80;;;;;;4999433;28;20207;-80
2022/05/30 13:09:28;;;;;;;3.70;2.60;;;20.00;68.50;;;;;;4996030;28;20514;-81
2022/05/30 13:12:15;;;;;;;3.40;2.73;;;20.30;74.30;;;;;;4995787;28;20420;-81
2022/05/30 13:14:56;;;;;;;4.00;2.10;;;20.70;75.50;;;;;;4988443;28;20870;-81
2022/05/30 13:17:23;;;;;;;3.73;2.30;;;20.70;68.40;;;;;;4975888;28;20559;-81
2022/05/30 13:19:58;;;;;;;4.70;2.40;;;20.60;72.50;;;;;;4976209;28;20460;-81
2022/05/30 13:23:00;;;;;;;4.53;2.03;;;20.60;74.50;;;;;;4976036;28;20416;-81
2022/05/30 13:25:47;;;;;;;3.23;1.70;;;20.30;73.20;;;;;;4975480;28;20915;-80
2022/05/30 13:28:21;;;;;;;3.10;2.03;;;20.20;76.40;;;;;;4976273;28;20864;-80
2022/05/30 13:30:48;;;;;;;3.13;1.90;;;20.00;76.80;;;;;;4975996;28;20440;-81
2022/05/30 13:33:19;;;;;;;2.90;2.10;;;20.20;77.60;;;;;;4976023;28;20409;-81
2022/05/30 13:35:45;;;;;;;3.60;1.90;;;19.90;75.40;;;;;;4975448;28;20551;-81
2022/05/30 13:38:13;;;;;;;3.43;2.00;;;20.10;76.80;;;;;;4975623;28;20445;-81
2022/05/30 13:40:39;;;;;;;3.80;2.53;;;20.10;74.10;;;;;;4975875;28;20421;-81